Portada
METAR-TAF:

METAR-TAF

Aeropuertos :

Aeropuerto Internacional de Bandar Abbás

Bandar Abbas, Irán

latitud: 27-13N, longitud: 056-22E, altitud: 10 m

Observación

El informe se hizo hace 39 minutos, a las 11:00 UTC
Viento 6 kt del sur
Temperatura 29°C
Humedad 27%
Presión 1011 hPa
Visibilidad 10 km o más
sin nubes por debajo de 1500 m y sin presencia de cumulonimbus.

METAR: OIKB 201100Z 19006KT CAVOK 29/08 Q1010 A2984 NOSIG

Hora: 15:09 (11:39 UTC)

Pronóstico

El informe se hizo hace 6 horas y 9 minutos, a las 05:30 UTC
Pronóstico válido del 20 a las 06 UTC al 21 a las 12 UTC
Viento 6 kt del noreste
Visibilidad: 7000 m
Temporalmente
del 20 a las 14 UTC al 20 a las 18 UTC
Viento 10 kt del suroeste
Escasas nubes a una altura de 3500 ft, Cumulonimbus.
Nubes dispersas a una altura de 4000 ft
Cielo nuboso a una altura de 10000 ft

TAF: OIKB 200530Z 2006/2112 05006KT 7000 NSC TEMPO 2014/2018 22010KT FEW035CB SCT040 BKN100

Observaciones y pronósticos meteorológicos de más de 4000 aeropuertos (mensajes METAR y TAF).

Los puntos amarillos y rojos representan las estaciones disponibles.

Ponga el ratón en el punto deseado para ver el nombre de la estación.

Haga clic para ver las observaciones y los pronósticos meteorológicos.

Para cambiar el mapa : haga clic en los botones verdes con una cruz de color negro para hacer un zoom, en el botón verde con un guión para alejar o en las flechas verdes para mapas adyacentes.


METAR-TAF: